Roy, Washington
Current Conditions -  °F | °C
As of 12:58 AM on Thursday 23 Oct 2014 (Local Time) from KGRF Reporting Station
Drizzle Drizzle  
Wind Chill: 54°   Ceiling: 5000
Heat Index: 54°   Visibility: 10mi
Dew Point: 51°   Wind: 8mph
Humidity: 88%   Direction: 170°S
Pressure: 29.74"   Gusts: NA
Location:  47°N, 122.54°W
Report Text: KGRF 230758Z AUTO 17007KT 10SM DZ OVC050 12/10 A2974 RMK AO2 SLP075 P0000 T01230104 401430119 $
Loading
Personal Weather Stations






























Interactive Weather Map
Tropical Storm Tracking
New forecast layout! Learn more

10-Day Weather Forecast

Advertisements
Track Severe Weather on mobile